Time;durP1;ratioP1;P1;durP2;ratioP2;P2;SDS_P1;SDS_P2;PMS_P1;PMS_P2;Temp;Humidity;BMP_temperature;BMP_pressure;BME280_temperature;BME280_humidity;BME280_pressure;Samples;Min_cycle;Max_cycle;Signal;HPM_P1;HPM_P2
2022/01/23 00:00:18;;;;;;;14.50;10.40;;;;;;;;;;5139888;27;20059;-64
2022/01/23 00:02:46;;;;;;;16.50;9.95;;;;;;;;;;5140223;27;20574;-64
2022/01/23 00:05:13;;;;;;;16.13;10.18;;;;;;;;;;5135768;27;20091;-66
2022/01/23 00:07:40;;;;;;;22.08;11.02;;;;;;;;;;5117073;27;20051;-64
2022/01/23 00:10:09;;;;;;;19.50;10.95;;;;;;;;;;5152396;27;20047;-66
2022/01/23 00:12:44;;;;;;;14.80;10.02;;;;;;;;;;5137586;27;20422;-65
2022/01/23 00:17:55;;;;;;;18.10;11.23;;;;;;;;;;5139500;27;20411;-64
2022/01/23 00:20:23;;;;;;;24.83;11.90;;;;;;;;;;5135956;27;20052;-65
2022/01/23 00:22:54;;;;;;;18.08;11.20;;;;;;;;;;5138812;27;20047;-64
2022/01/23 00:30:53;;;;;;;19.73;11.32;;;;;;;;;;5139239;27;20058;-64
2022/01/23 00:33:19;;;;;;;18.27;10.65;;;;;;;;;;5143939;27;20047;-67
2022/01/23 00:35:46;;;;;;;15.90;10.52;;;;;;;;;;5146381;27;20094;-65
2022/01/23 00:38:13;;;;;;;21.23;10.55;;;;;;;;;;5143341;27;20564;-64
2022/01/23 00:40:40;;;;;;;18.80;10.73;;;;;;;;;;5145326;27;20059;-64
2022/01/23 00:43:14;;;;;;;16.70;10.20;;;;;;;;;;5139904;27;20153;-65
2022/01/23 00:45:47;;;;;;;21.40;10.82;;;;;;;;;;5130972;27;20739;-65
2022/01/23 00:48:16;;;;;;;16.10;10.70;;;;;;;;;;5135999;27;20121;-65
2022/01/23 00:50:43;;;;;;;15.07;9.45;;;;;;;;;;5137833;27;20054;-65
2022/01/23 00:53:11;;;;;;;16.80;9.38;;;;;;;;;;5134243;27;20055;-66
2022/01/23 00:55:38;;;;;;;15.52;9.25;;;;;;;;;;5135411;27;20058;-66
2022/01/23 00:58:04;;;;;;;15.88;9.55;;;;;;;;;;5145900;27;20059;-65
2022/01/23 01:00:31;;;;;;;13.52;9.25;;;;;;;;;;5134952;27;20056;-65
2022/01/23 01:03:01;;;;;;;13.90;9.35;;;;;;;;;;5136066;27;20054;-64
2022/01/23 01:05:28;;;;;;;19.67;9.35;;;;;;;;;;5150027;27;20059;-64
2022/01/23 01:07:55;;;;;;;16.73;8.45;;;;;;;;;;5137407;27;20494;-66
2022/01/23 01:10:28;;;;;;;13.38;8.75;;;;;;;;;;5151512;27;20142;-64
2022/01/23 01:13:00;;;;;;;16.15;10.13;;;;;;;;;;5130068;27;20069;-65
2022/01/23 01:32:00;;;;;;;15.70;9.15;;;;;;;;;;5138898;27;20061;-64
2022/01/23 01:34:41;;;;;;;14.23;9.52;;;;;;;;;;5134946;27;20050;-64
2022/01/23 01:37:09;;;;;;;15.60;8.50;;;;;;;;;;5135860;27;20423;-65
2022/01/23 01:39:41;;;;;;;17.67;8.98;;;;;;;;;;5142823;27;20052;-64
2022/01/23 01:42:07;;;;;;;12.30;9.05;;;;;;;;;;5148365;27;20054;-64
2022/01/23 01:44:34;;;;;;;14.98;8.88;;;;;;;;;;5125707;27;20506;-66
2022/01/23 01:47:00;;;;;;;17.83;9.38;;;;;;;;;;5140283;27;20051;-65
2022/01/23 01:49:29;;;;;;;22.25;10.57;;;;;;;;;;5135039;27;20619;-64
2022/01/23 01:51:57;;;;;;;15.65;10.85;;;;;;;;;;5140178;27;20052;-64
2022/01/23 01:54:25;;;;;;;20.48;12.27;;;;;;;;;;5151645;27;20058;-64
2022/01/23 01:56:53;;;;;;;18.58;11.82;;;;;;;;;;5147852;27;20061;-65
2022/01/23 02:10:03;;;;;;;17.15;11.45;;;;;;;;;;5135389;27;20462;-65
2022/01/23 02:17:42;;;;;;;22.65;11.20;;;;;;;;;;5117833;27;20177;-66
2022/01/23 02:23:10;;;;;;;17.90;11.18;;;;;;;;;;5141782;27;20048;-64
2022/01/23 02:55:47;;;;;;;19.85;12.70;;;;;;;;;;5134068;27;20058;-65
2022/01/23 02:58:17;;;;;;;21.20;12.63;;;;;;;;;;5133297;27;20077;-65
2022/01/23 03:03:29;;;;;;;19.40;12.00;;;;;;;;;;5135248;27;20056;-66
2022/01/23 03:06:55;;;;;;;23.67;13.07;;;;;;;;;;5140543;27;20477;-66
2022/01/23 03:09:10;;;;;;;17.80;13.00;;;;;;;;;;5102729;28;20499;-67
2022/01/23 03:25:06;;;;;;;23.85;13.23;;;;;;;;;;5133698;27;20466;-66
2022/01/23 03:30:36;;;;;;;21.95;14.15;;;;;;;;;;5144469;27;20054;-65
2022/01/23 03:33:02;;;;;;;20.77;14.07;;;;;;;;;;5133305;27;20051;-66
2022/01/23 03:35:29;;;;;;;20.50;13.98;;;;;;;;;;5139116;27;20055;-65
2022/01/23 03:37:56;;;;;;;22.27;14.43;;;;;;;;;;5148587;27;20057;-65
2022/01/23 03:40:23;;;;;;;25.58;14.75;;;;;;;;;;5135587;27;20521;-65
2022/01/23 03:42:56;;;;;;;22.23;13.63;;;;;;;;;;5136202;27;20055;-65
2022/01/23 03:45:49;;;;;;;25.45;14.20;;;;;;;;;;5132845;27;20443;-66
2022/01/23 03:50:42;;;;;;;20.95;14.32;;;;;;;;;;5141448;27;20491;-66
2022/01/23 03:53:09;;;;;;;21.80;14.10;;;;;;;;;;5137882;27;20157;-65
2022/01/23 03:55:35;;;;;;;20.83;13.57;;;;;;;;;;5153605;27;20047;-65
2022/01/23 03:58:02;;;;;;;22.17;12.95;;;;;;;;;;5145686;27;20059;-65
2022/01/23 04:00:28;;;;;;;22.05;12.32;;;;;;;;;;5148578;27;20508;-65
2022/01/23 04:02:54;;;;;;;17.95;11.75;;;;;;;;;;5139252;27;20062;-65
2022/01/23 04:05:21;;;;;;;20.35;11.48;;;;;;;;;;5144795;27;20059;-65
2022/01/23 04:07:47;;;;;;;16.73;11.57;;;;;;;;;;5148854;27;20062;-65
2022/01/23 04:10:16;;;;;;;16.77;11.50;;;;;;;;;;5139059;27;20565;-65
2022/01/23 04:15:21;;;;;;;16.63;10.57;;;;;;;;;;5138763;27;20054;-66
2022/01/23 04:34:33;;;;;;;13.57;9.50;;;;;;;;;;5135648;27;20412;-65
2022/01/23 05:01:22;;;;;;;14.63;10.70;;;;;;;;;;5141288;27;20056;-65
2022/01/23 05:04:14;;;;;;;15.48;10.07;;;;;;;;;;5134390;27;20547;-65
2022/01/23 05:07:16;;;;;;;15.40;9.52;;;;;;;;;;5134545;27;20455;-65
2022/01/23 05:09:34;;;;;;;13.52;9.23;;;;;;;;;;5125879;27;20055;-65
2022/01/23 05:12:02;;;;;;;14.20;8.88;;;;;;;;;;5142210;27;20055;-65
2022/01/23 05:14:33;;;;;;;14.63;9.23;;;;;;;;;;5139332;27;20063;-66
2022/01/23 05:17:00;;;;;;;13.32;8.93;;;;;;;;;;5137200;27;20414;-64
2022/01/23 05:19:26;;;;;;;13.10;8.80;;;;;;;;;;5134741;27;20048;-65
2022/01/23 05:24:34;;;;;;;14.38;7.43;;;;;;;;;;5135807;27;20056;-64
2022/01/23 05:27:01;;;;;;;12.63;7.15;;;;;;;;;;5140546;27;20054;-65
2022/01/23 05:29:27;;;;;;;15.73;7.07;;;;;;;;;;5147442;27;20058;-66
2022/01/23 05:31:54;;;;;;;14.55;9.25;;;;;;;;;;5139608;27;20054;-65
2022/01/23 05:34:22;;;;;;;13.45;7.38;;;;;;;;;;5137776;27;20478;-65
2022/01/23 05:36:49;;;;;;;15.07;8.05;;;;;;;;;;5140246;27;20082;-65
2022/01/23 05:39:18;;;;;;;12.48;7.15;;;;;;;;;;5135514;27;20043;-65
2022/01/23 05:41:45;;;;;;;11.10;6.60;;;;;;;;;;5139779;27;20066;-65
2022/01/23 05:44:12;;;;;;;11.82;7.18;;;;;;;;;;5134987;27;20055;-65
2022/01/23 05:46:38;;;;;;;10.43;6.90;;;;;;;;;;5135665;27;20498;-64
2022/01/23 05:49:05;;;;;;;8.75;6.72;;;;;;;;;;5135242;27;20051;-66
2022/01/23 05:51:32;;;;;;;7.90;6.32;;;;;;;;;;5134962;27;20051;-66
2022/01/23 05:53:58;;;;;;;8.98;6.68;;;;;;;;;;5134920;27;20051;-65
2022/01/23 05:56:24;;;;;;;8.98;6.90;;;;;;;;;;5135047;27;20055;-65
2022/01/23 05:58:51;;;;;;;12.02;6.78;;;;;;;;;;5134789;27;20132;-65
2022/01/23 06:01:18;;;;;;;10.68;6.25;;;;;;;;;;5134609;27;20051;-65
2022/01/23 06:03:44;;;;;;;10.43;6.90;;;;;;;;;;5114234;27;20051;-65
2022/01/23 06:06:10;;;;;;;7.65;6.15;;;;;;;;;;5134172;27;20542;-65
2022/01/23 06:08:37;;;;;;;8.48;6.97;;;;;;;;;;5134360;27;20051;-65
2022/01/23 06:11:03;;;;;;;14.43;8.40;;;;;;;;;;5134263;27;20052;-66
2022/01/23 06:13:31;;;;;;;14.38;8.50;;;;;;;;;;5134990;27;20068;-66
2022/01/23 06:15:57;;;;;;;10.27;7.97;;;;;;;;;;5134952;27;20047;-65
2022/01/23 06:18:24;;;;;;;11.68;8.07;;;;;;;;;;5134632;27;20044;-65
2022/01/23 06:20:50;;;;;;;14.93;8.10;;;;;;;;;;5133774;27;20047;-65
2022/01/23 06:23:17;;;;;;;12.45;9.02;;;;;;;;;;5134811;27;20047;-67
2022/01/23 06:25:44;;;;;;;15.35;8.45;;;;;;;;;;5134479;27;20048;-65
2022/01/23 06:28:12;;;;;;;14.75;8.88;;;;;;;;;;5134574;27;20048;-65
2022/01/23 06:30:38;;;;;;;11.90;9.18;;;;;;;;;;5134076;27;20054;-65
2022/01/23 06:33:05;;;;;;;14.95;9.95;;;;;;;;;;5133766;27;20139;-65
2022/01/23 06:35:32;;;;;;;13.70;9.27;;;;;;;;;;5133906;27;20059;-66
2022/01/23 06:37:59;;;;;;;18.02;9.95;;;;;;;;;;5132306;27;20055;-65
2022/01/23 06:40:25;;;;;;;18.35;10.80;;;;;;;;;;5131423;27;20055;-66
2022/01/23 06:42:53;;;;;;;17.88;10.60;;;;;;;;;;5131594;27;20055;-67
2022/01/23 06:45:19;;;;;;;15.40;9.65;;;;;;;;;;5134293;27;20047;-65
2022/01/23 06:47:45;;;;;;;14.77;9.82;;;;;;;;;;5134517;27;20528;-65
2022/01/23 06:50:12;;;;;;;15.80;10.38;;;;;;;;;;5134370;27;20062;-65
2022/01/23 06:52:38;;;;;;;13.18;9.20;;;;;;;;;;5140390;27;20052;-65
2022/01/23 06:55:04;;;;;;;11.93;8.68;;;;;;;;;;5134088;27;20050;-65
2022/01/23 06:57:30;;;;;;;11.85;9.00;;;;;;;;;;5133940;27;20060;-66
2022/01/23 06:59:57;;;;;;;14.02;9.63;;;;;;;;;;5135074;27;20040;-65
2022/01/23 07:02:23;;;;;;;14.75;10.60;;;;;;;;;;5134051;27;20070;-65
2022/01/23 07:04:50;;;;;;;16.73;10.00;;;;;;;;;;5133197;27;20062;-65
2022/01/23 07:07:16;;;;;;;15.90;10.93;;;;;;;;;;5134216;27;20577;-65
2022/01/23 07:09:42;;;;;;;17.05;10.57;;;;;;;;;;5133856;27;20052;-66
2022/01/23 07:12:09;;;;;;;17.92;11.88;;;;;;;;;;5133986;27;20194;-64
2022/01/23 07:14:39;;;;;;;16.70;10.68;;;;;;;;;;5134362;27;20567;-65
2022/01/23 07:17:05;;;;;;;17.50;11.13;;;;;;;;;;5134069;27;20052;-64
2022/01/23 07:19:31;;;;;;;15.98;11.50;;;;;;;;;;5133959;27;20052;-65
2022/01/23 07:21:58;;;;;;;16.35;11.00;;;;;;;;;;5133739;27;20063;-64
2022/01/23 07:24:24;;;;;;;16.15;10.60;;;;;;;;;;5133067;27;20048;-65
2022/01/23 07:26:50;;;;;;;15.07;9.63;;;;;;;;;;5134458;27;20056;-65
2022/01/23 07:29:18;;;;;;;13.90;9.52;;;;;;;;;;5133209;27;20052;-65
2022/01/23 07:32:06;;;;;;;15.02;9.98;;;;;;;;;;5133746;27;20143;-66
2022/01/23 07:34:32;;;;;;;15.00;9.73;;;;;;;;;;5134094;27;20063;-66
2022/01/23 07:36:59;;;;;;;17.17;10.05;;;;;;;;;;5133171;27;20075;-66
2022/01/23 07:39:25;;;;;;;16.17;8.80;;;;;;;;;;5133850;27;20131;-65
2022/01/23 07:41:52;;;;;;;13.75;9.13;;;;;;;;;;5135867;27;20085;-66
2022/01/23 07:44:18;;;;;;;14.13;8.68;;;;;;;;;;5137773;27;20052;-65
2022/01/23 07:46:44;;;;;;;13.45;8.45;;;;;;;;;;5136354;27;20166;-66
2022/01/23 07:49:11;;;;;;;13.57;8.05;;;;;;;;;;5136841;27;20601;-66
2022/01/23 07:51:37;;;;;;;13.48;8.82;;;;;;;;;;5137016;27;20504;-66
2022/01/23 07:54:04;;;;;;;14.40;8.73;;;;;;;;;;5137372;27;20079;-65
2022/01/23 07:56:30;;;;;;;13.10;9.10;;;;;;;;;;5148731;27;20051;-66
2022/01/23 07:58:57;;;;;;;12.27;7.90;;;;;;;;;;5138503;27;20051;-65
2022/01/23 08:01:23;;;;;;;13.43;8.20;;;;;;;;;;5143191;27;20055;-64
2022/01/23 08:03:50;;;;;;;11.43;7.80;;;;;;;;;;5145759;27;20090;-64
2022/01/23 08:06:17;;;;;;;10.20;7.53;;;;;;;;;;5138250;27;20055;-64
2022/01/23 08:08:44;;;;;;;12.20;7.78;;;;;;;;;;5139196;27;20495;-64
2022/01/23 08:11:10;;;;;;;11.02;8.50;;;;;;;;;;5136260;27;20051;-66
2022/01/23 08:13:37;;;;;;;14.50;7.88;;;;;;;;;;5136584;27;20058;-65
2022/01/23 08:16:03;;;;;;;13.15;8.05;;;;;;;;;;5139079;27;20051;-66
2022/01/23 08:18:30;;;;;;;10.00;6.72;;;;;;;;;;5140552;27;20144;-64
2022/01/23 08:20:56;;;;;;;14.35;7.53;;;;;;;;;;5136400;27;20047;-64
2022/01/23 08:23:22;;;;;;;13.23;6.90;;;;;;;;;;5136720;27;20052;-64
2022/01/23 08:25:49;;;;;;;13.63;7.50;;;;;;;;;;5136781;27;20047;-66
2022/01/23 08:28:15;;;;;;;13.48;7.45;;;;;;;;;;5138731;27;20058;-65
2022/01/23 08:30:42;;;;;;;12.75;7.70;;;;;;;;;;5141431;27;20091;-65
2022/01/23 08:33:08;;;;;;;12.45;6.97;;;;;;;;;;5133940;27;20139;-66
2022/01/23 08:35:34;;;;;;;12.25;8.15;;;;;;;;;;5143752;27;20047;-67
2022/01/23 08:38:01;;;;;;;12.32;6.72;;;;;;;;;;5135805;27;20413;-66
2022/01/23 08:40:46;;;;;;;11.00;7.05;;;;;;;;;;5135733;27;20059;-66
2022/01/23 08:43:14;;;;;;;13.03;7.67;;;;;;;;;;5136115;27;20051;-66
2022/01/23 08:45:40;;;;;;;10.82;6.78;;;;;;;;;;5153518;27;20520;-65
2022/01/23 08:48:07;;;;;;;12.32;7.75;;;;;;;;;;5157786;27;20055;-65
2022/01/23 08:50:35;;;;;;;18.02;7.40;;;;;;;;;;5141116;27;20517;-65
2022/01/23 08:53:01;;;;;;;13.60;8.25;;;;;;;;;;5141013;27;20053;-65
2022/01/23 08:55:27;;;;;;;12.00;7.50;;;;;;;;;;5135678;27;20054;-65
2022/01/23 08:57:54;;;;;;;11.38;7.60;;;;;;;;;;5135974;27;20043;-66
2022/01/23 09:00:28;;;;;;;12.63;7.55;;;;;;;;;;5136101;27;20532;-65
2022/01/23 09:02:55;;;;;;;11.57;8.30;;;;;;;;;;5134776;27;20051;-65
2022/01/23 09:05:23;;;;;;;13.65;7.85;;;;;;;;;;5135707;27;20090;-66
2022/01/23 09:07:49;;;;;;;12.05;7.50;;;;;;;;;;5152774;27;20051;-65
2022/01/23 09:10:24;;;;;;;12.95;8.15;;;;;;;;;;5137284;27;20055;-66
2022/01/23 09:15:44;;;;;;;13.07;8.93;;;;;;;;;;5120087;27;20060;-65
2022/01/23 09:18:10;;;;;;;12.98;8.55;;;;;;;;;;5148566;27;20143;-65
2022/01/23 09:20:37;;;;;;;13.50;8.75;;;;;;;;;;5138064;27;20043;-65
2022/01/23 09:23:03;;;;;;;11.68;8.48;;;;;;;;;;5135504;27;20056;-65
2022/01/23 09:25:30;;;;;;;11.57;8.02;;;;;;;;;;5135524;27;20443;-65
2022/01/23 09:28:01;;;;;;;12.77;8.38;;;;;;;;;;5134070;27;20055;-65
2022/01/23 09:30:34;;;;;;;11.15;7.40;;;;;;;;;;5135622;27;20057;-64
2022/01/23 09:33:01;;;;;;;11.48;7.55;;;;;;;;;;5135341;27;20048;-65
2022/01/23 09:35:27;;;;;;;11.55;7.50;;;;;;;;;;5136286;27;20445;-64
2022/01/23 09:37:54;;;;;;;11.77;8.35;;;;;;;;;;5135305;27;20052;-65
2022/01/23 09:40:20;;;;;;;13.85;8.18;;;;;;;;;;5140593;27;20513;-65
2022/01/23 09:42:49;;;;;;;10.57;7.65;;;;;;;;;;5139305;27;20051;-65
2022/01/23 09:45:16;;;;;;;10.48;7.40;;;;;;;;;;5142175;27;20043;-65
2022/01/23 09:47:42;;;;;;;12.05;7.75;;;;;;;;;;5136379;27;20079;-64
2022/01/23 09:50:10;;;;;;;10.25;7.50;;;;;;;;;;5134616;27;20052;-67
2022/01/23 09:52:37;;;;;;;11.63;7.68;;;;;;;;;;5139196;27;20512;-67
2022/01/23 09:55:10;;;;;;;11.80;8.10;;;;;;;;;;5135497;27;20055;-65
2022/01/23 09:57:37;;;;;;;12.05;7.35;;;;;;;;;;5115252;27;20500;-65
2022/01/23 10:00:05;;;;;;;11.00;7.30;;;;;;;;;;5135187;27;20136;-64
2022/01/23 10:02:31;;;;;;;10.20;7.43;;;;;;;;;;5135123;27;20067;-65
2022/01/23 10:05:01;;;;;;;10.73;6.50;;;;;;;;;;5133904;27;20060;-66
2022/01/23 10:07:28;;;;;;;12.00;7.57;;;;;;;;;;5132840;27;20537;-65
2022/01/23 10:10:06;;;;;;;10.50;7.32;;;;;;;;;;5133978;27;20515;-67
2022/01/23 10:12:33;;;;;;;9.00;6.85;;;;;;;;;;5134351;27;20053;-66
2022/01/23 10:14:59;;;;;;;12.10;6.90;;;;;;;;;;5134119;27;20058;-68
2022/01/23 10:17:25;;;;;;;9.20;7.05;;;;;;;;;;5134538;27;20542;-66
2022/01/23 10:19:52;;;;;;;10.55;7.18;;;;;;;;;;5134483;27;20055;-66
2022/01/23 10:22:18;;;;;;;8.85;6.40;;;;;;;;;;5140261;27;20074;-66
2022/01/23 10:24:45;;;;;;;9.52;6.80;;;;;;;;;;5134467;27;20052;-65
2022/01/23 10:27:11;;;;;;;9.23;6.00;;;;;;;;;;5134792;27;20063;-65
2022/01/23 10:29:43;;;;;;;8.35;6.20;;;;;;;;;;5134431;27;20138;-65
2022/01/23 10:32:18;;;;;;;10.02;6.35;;;;;;;;;;5134666;27;20063;-65
2022/01/23 10:34:54;;;;;;;6.95;5.60;;;;;;;;;;5134429;27;20056;-64
2022/01/23 10:37:26;;;;;;;7.30;5.70;;;;;;;;;;5134458;27;20060;-65
2022/01/23 10:39:58;;;;;;;9.98;5.70;;;;;;;;;;5134499;27;20052;-65
2022/01/23 10:48:12;;;;;;;7.63;5.53;;;;;;;;;;5134513;27;20055;-65
2022/01/23 10:50:39;;;;;;;8.57;5.43;;;;;;;;;;5133804;27;20540;-65
2022/01/23 10:53:06;;;;;;;9.23;5.38;;;;;;;;;;5134022;27;20078;-65
2022/01/23 10:55:33;;;;;;;8.75;5.93;;;;;;;;;;5134405;27;20052;-64
2022/01/23 10:58:02;;;;;;;9.35;5.10;;;;;;;;;;5133732;27;20047;-65
2022/01/23 11:00:29;;;;;;;10.13;6.22;;;;;;;;;;5134507;27;20555;-65
2022/01/23 11:02:57;;;;;;;8.45;5.78;;;;;;;;;;5150703;27;20054;-65
2022/01/23 11:05:33;;;;;;;7.95;5.63;;;;;;;;;;5154297;27;20059;-65
2022/01/23 11:08:00;;;;;;;9.65;5.47;;;;;;;;;;5154522;27;20464;-65
2022/01/23 11:10:27;;;;;;;7.05;5.28;;;;;;;;;;5153865;27;20077;-65
2022/01/23 11:18:11;;;;;;;8.20;5.88;;;;;;;;;;5141131;27;20498;-67
2022/01/23 11:20:39;;;;;;;10.07;5.60;;;;;;;;;;5137661;27;20048;-65
2022/01/23 11:23:11;;;;;;;8.65;6.30;;;;;;;;;;5154717;27;20426;-67
2022/01/23 11:25:42;;;;;;;7.03;4.75;;;;;;;;;;5137885;27;20521;-65
2022/01/23 11:28:08;;;;;;;11.35;6.32;;;;;;;;;;5137476;27;20139;-65
2022/01/23 11:30:45;;;;;;;8.95;6.03;;;;;;;;;;5137198;27;20125;-67
2022/01/23 11:33:17;;;;;;;8.82;6.35;;;;;;;;;;5137440;27;20384;-67
2022/01/23 11:35:44;;;;;;;8.40;5.57;;;;;;;;;;5137376;27;20055;-66
2022/01/23 11:38:16;;;;;;;10.60;6.43;;;;;;;;;;5137868;27;20134;-66
2022/01/23 11:54:54;;;;;;;7.32;5.32;;;;;;;;;;5053151;28;20524;-65
2022/01/23 11:57:33;;;;;;;7.53;5.40;;;;;;;;;;5120663;27;20053;-65
2022/01/23 12:00:03;;;;;;;8.45;5.40;;;;;;;;;;5141863;27;20590;-65
2022/01/23 12:02:38;;;;;;;8.18;5.50;;;;;;;;;;5141996;27;20058;-65
2022/01/23 12:05:15;;;;;;;11.00;6.03;;;;;;;;;;5136410;27;20138;-64
2022/01/23 12:08:07;;;;;;;10.90;5.72;;;;;;;;;;5136350;27;20052;-65
2022/01/23 12:10:50;;;;;;;7.93;5.50;;;;;;;;;;5131727;27;20044;-65
2022/01/23 12:18:49;;;;;;;7.53;5.65;;;;;;;;;;5125385;27;20052;-64
2022/01/23 12:21:29;;;;;;;7.35;5.65;;;;;;;;;;5136883;27;20347;-64
2022/01/23 12:23:56;;;;;;;7.93;5.55;;;;;;;;;;5139628;27;20044;-64
2022/01/23 12:26:22;;;;;;;8.80;5.88;;;;;;;;;;5148282;27;20055;-64
2022/01/23 12:28:49;;;;;;;7.82;5.85;;;;;;;;;;5146388;27;20051;-64
2022/01/23 12:31:23;;;;;;;7.18;5.55;;;;;;;;;;5136698;27;20476;-64
2022/01/23 12:33:52;;;;;;;10.57;6.43;;;;;;;;;;5142581;27;20047;-64
2022/01/23 12:36:20;;;;;;;8.85;6.03;;;;;;;;;;5144344;27;20050;-66
2022/01/23 12:38:48;;;;;;;7.78;5.80;;;;;;;;;;5136256;27;20051;-64
2022/01/23 12:41:32;;;;;;;8.38;5.85;;;;;;;;;;5137625;27;20051;-64
2022/01/23 12:44:02;;;;;;;8.05;5.90;;;;;;;;;;5129512;27;20052;-64
2022/01/23 12:46:30;;;;;;;7.38;5.80;;;;;;;;;;5128479;27;20105;-64
2022/01/23 12:48:59;;;;;;;9.98;6.28;;;;;;;;;;5134720;27;20051;-63
2022/01/23 12:51:32;;;;;;;9.77;7.18;;;;;;;;;;5135394;27;20501;-64
2022/01/23 12:53:59;;;;;;;12.27;6.28;;;;;;;;;;5135127;27;21013;-63
2022/01/23 12:56:30;;;;;;;10.52;6.93;;;;;;;;;;5134879;27;20078;-64
2022/01/23 12:59:07;;;;;;;10.27;6.63;;;;;;;;;;5134670;27;20052;-65
2022/01/23 13:01:36;;;;;;;10.55;7.30;;;;;;;;;;5135341;27;20400;-63
2022/01/23 13:04:04;;;;;;;13.23;7.20;;;;;;;;;;5134845;27;20059;-65
2022/01/23 13:06:30;;;;;;;10.13;7.20;;;;;;;;;;5134501;27;20056;-65
2022/01/23 13:09:23;;;;;;;10.18;6.65;;;;;;;;;;5134534;27;20714;-63
2022/01/23 13:11:55;;;;;;;10.75;7.30;;;;;;;;;;5134155;27;20593;-63
2022/01/23 13:14:27;;;;;;;10.10;6.63;;;;;;;;;;5124082;27;20528;-63
2022/01/23 13:17:25;;;;;;;8.63;6.70;;;;;;;;;;5133684;27;20051;-64
2022/01/23 13:30:50;;;;;;;16.63;8.15;;;;;;;;;;5134584;27;20051;-64
2022/01/23 13:33:21;;;;;;;10.60;7.22;;;;;;;;;;5130627;27;20126;-64
2022/01/23 13:35:52;;;;;;;10.65;7.03;;;;;;;;;;5123876;27;20048;-65
2022/01/23 13:38:20;;;;;;;11.73;7.00;;;;;;;;;;5132161;27;20135;-64
2022/01/23 13:40:56;;;;;;;11.65;8.05;;;;;;;;;;5132949;27;20044;-64
2022/01/23 13:52:01;;;;;;;12.40;6.97;;;;;;;;;;5129727;27;20054;-64
2022/01/23 13:59:58;;;;;;;10.93;7.35;;;;;;;;;;5151235;27;20055;-64
2022/01/23 14:02:31;;;;;;;8.68;6.78;;;;;;;;;;5116060;27;20052;-66
2022/01/23 14:05:11;;;;;;;9.75;7.32;;;;;;;;;;5134261;27;20059;-65
2022/01/23 14:07:39;;;;;;;12.43;8.20;;;;;;;;;;5133785;27;20066;-64
2022/01/23 14:10:14;;;;;;;12.63;7.10;;;;;;;;;;5133176;27;20147;-64
2022/01/23 14:12:41;;;;;;;14.25;7.30;;;;;;;;;;5134002;27;20051;-65
2022/01/23 14:15:26;;;;;;;12.38;7.18;;;;;;;;;;5133624;27;20086;-64
2022/01/23 14:18:00;;;;;;;9.55;7.18;;;;;;;;;;5129770;27;20058;-64
2022/01/23 14:20:28;;;;;;;12.43;7.40;;;;;;;;;;5132181;27;20066;-65
2022/01/23 14:22:55;;;;;;;12.27;8.15;;;;;;;;;;5133517;27;20418;-65
2022/01/23 14:25:26;;;;;;;9.23;7.13;;;;;;;;;;5115998;27;20130;-64
2022/01/23 14:28:03;;;;;;;10.60;7.13;;;;;;;;;;5133709;27;20051;-63
2022/01/23 14:30:30;;;;;;;11.88;7.28;;;;;;;;;;5127702;27;20422;-64
2022/01/23 14:33:09;;;;;;;10.15;6.90;;;;;;;;;;5133130;27;20058;-64
2022/01/23 14:35:36;;;;;;;12.82;7.57;;;;;;;;;;5129705;27;20403;-64
2022/01/23 14:38:11;;;;;;;12.68;7.55;;;;;;;;;;5135272;27;20052;-63
2022/01/23 14:40:38;;;;;;;11.38;6.93;;;;;;;;;;5133359;27;20074;-64
2022/01/23 14:43:09;;;;;;;10.55;7.05;;;;;;;;;;5113517;27;20062;-63
2022/01/23 14:45:40;;;;;;;9.93;7.05;;;;;;;;;;5128907;27;20051;-63
2022/01/23 14:48:07;;;;;;;12.85;8.10;;;;;;;;;;5133579;27;20510;-64
2022/01/23 14:50:36;;;;;;;10.77;6.80;;;;;;;;;;5133843;27;20093;-64
2022/01/23 14:53:07;;;;;;;9.82;6.35;;;;;;;;;;5137661;27;20048;-62
2022/01/23 14:55:33;;;;;;;10.05;6.57;;;;;;;;;;5142968;27;20052;-63
2022/01/23 14:58:01;;;;;;;8.85;6.25;;;;;;;;;;5135450;27;20082;-63
2022/01/23 15:00:29;;;;;;;9.98;6.35;;;;;;;;;;5124601;27;20060;-63
2022/01/23 15:02:56;;;;;;;8.75;6.40;;;;;;;;;;5118940;27;20163;-63
2022/01/23 15:05:23;;;;;;;9.30;6.10;;;;;;;;;;5133534;27;20117;-63
2022/01/23 15:07:49;;;;;;;12.35;6.72;;;;;;;;;;5132900;27;20048;-63
2022/01/23 15:10:15;;;;;;;10.82;7.25;;;;;;;;;;5121781;27;20044;-64
2022/01/23 15:12:41;;;;;;;10.65;7.30;;;;;;;;;;5112744;27;20056;-65
2022/01/23 15:15:08;;;;;;;9.82;6.82;;;;;;;;;;5131283;27;20050;-65
2022/01/23 15:17:34;;;;;;;12.20;7.18;;;;;;;;;;5147522;27;20498;-64
2022/01/23 15:20:01;;;;;;;13.70;7.00;;;;;;;;;;5140447;27;20070;-64
2022/01/23 15:22:27;;;;;;;11.02;6.97;;;;;;;;;;5137840;27;20079;-64
2022/01/23 15:24:54;;;;;;;11.63;7.40;;;;;;;;;;5141681;27;20055;-64
2022/01/23 15:27:20;;;;;;;10.93;7.35;;;;;;;;;;5113017;28;20507;-64
2022/01/23 15:29:47;;;;;;;11.07;7.25;;;;;;;;;;5130630;27;20043;-65
2022/01/23 15:32:13;;;;;;;11.18;7.32;;;;;;;;;;5133364;27;20054;-64
2022/01/23 15:34:40;;;;;;;10.85;7.53;;;;;;;;;;5127419;27;20510;-63
2022/01/23 15:37:06;;;;;;;11.55;7.63;;;;;;;;;;5112302;28;20075;-65
2022/01/23 15:39:32;;;;;;;11.60;7.53;;;;;;;;;;5113277;27;20059;-63
2022/01/23 15:41:59;;;;;;;13.45;8.93;;;;;;;;;;5127896;27;20050;-64
2022/01/23 15:44:25;;;;;;;12.82;8.70;;;;;;;;;;5132171;27;20051;-63
2022/01/23 15:46:52;;;;;;;10.95;7.20;;;;;;;;;;5130234;27;20105;-65
2022/01/23 15:49:18;;;;;;;11.48;7.40;;;;;;;;;;5112521;28;20049;-64
2022/01/23 15:51:47;;;;;;;12.20;8.25;;;;;;;;;;5112750;27;20194;-63
2022/01/23 15:54:15;;;;;;;11.90;8.18;;;;;;;;;;5132673;27;20059;-63
2022/01/23 15:56:42;;;;;;;13.13;7.85;;;;;;;;;;5127365;27;20513;-63
2022/01/23 15:59:08;;;;;;;12.93;8.20;;;;;;;;;;5125063;27;20059;-62
2022/01/23 16:01:35;;;;;;;12.18;8.27;;;;;;;;;;5112559;27;20048;-62
2022/01/23 16:04:02;;;;;;;11.68;7.25;;;;;;;;;;5129661;27;20052;-63
2022/01/23 16:06:28;;;;;;;11.82;8.15;;;;;;;;;;5135487;27;20062;-63
2022/01/23 16:08:54;;;;;;;13.10;8.50;;;;;;;;;;5136504;27;20082;-64
2022/01/23 16:11:21;;;;;;;15.15;8.38;;;;;;;;;;5133174;27;20521;-64
2022/01/23 16:13:47;;;;;;;13.15;9.02;;;;;;;;;;5135539;27;20076;-63
2022/01/23 16:16:14;;;;;;;12.60;9.18;;;;;;;;;;5135014;27;20414;-64
2022/01/23 16:18:41;;;;;;;13.60;9.02;;;;;;;;;;5130448;27;20086;-63
2022/01/23 16:21:09;;;;;;;13.38;8.82;;;;;;;;;;5125497;27;20054;-63
2022/01/23 16:23:36;;;;;;;16.70;9.15;;;;;;;;;;5134534;27;20518;-63
2022/01/23 16:26:09;;;;;;;13.35;8.68;;;;;;;;;;5135615;27;20055;-63
2022/01/23 16:28:35;;;;;;;12.35;7.88;;;;;;;;;;5131101;27;20043;-64
2022/01/23 16:31:01;;;;;;;13.52;8.63;;;;;;;;;;5135532;27;20055;-64
2022/01/23 16:33:28;;;;;;;13.63;9.02;;;;;;;;;;5134944;27;20054;-62
2022/01/23 16:36:01;;;;;;;16.55;9.20;;;;;;;;;;5132925;27;20047;-63
2022/01/23 16:38:27;;;;;;;14.40;8.75;;;;;;;;;;5134789;27;20061;-63
2022/01/23 16:40:54;;;;;;;15.07;9.95;;;;;;;;;;5135546;27;20058;-63
2022/01/23 16:43:23;;;;;;;12.68;8.52;;;;;;;;;;5135416;27;20051;-63
2022/01/23 16:45:50;;;;;;;13.00;10.00;;;;;;;;;;5134999;27;20058;-63
2022/01/23 16:48:16;;;;;;;14.40;9.25;;;;;;;;;;5130988;27;20070;-63
2022/01/23 16:50:43;;;;;;;15.07;9.68;;;;;;;;;;5134676;27;20056;-63
2022/01/23 16:53:09;;;;;;;14.35;10.30;;;;;;;;;;5131997;27;20047;-63
2022/01/23 16:55:36;;;;;;;13.02;9.25;;;;;;;;;;5135437;27;20047;-64
2022/01/23 16:58:02;;;;;;;17.27;10.13;;;;;;;;;;5134691;27;20059;-63
2022/01/23 17:00:29;;;;;;;15.40;9.50;;;;;;;;;;5134043;27;20052;-63
2022/01/23 17:03:06;;;;;;;13.65;9.45;;;;;;;;;;5126311;27;20052;-62
2022/01/23 17:05:33;;;;;;;15.75;10.88;;;;;;;;;;5130748;27;20055;-63
2022/01/23 17:07:59;;;;;;;13.50;9.68;;;;;;;;;;5132084;27;20555;-63
2022/01/23 17:10:26;;;;;;;16.27;10.30;;;;;;;;;;5131488;27;20142;-63
2022/01/23 17:12:52;;;;;;;17.13;10.40;;;;;;;;;;5135151;27;20048;-63
2022/01/23 17:15:18;;;;;;;18.20;11.57;;;;;;;;;;5135084;27;20051;-63
2022/01/23 17:17:51;;;;;;;19.10;10.23;;;;;;;;;;5134769;27;20104;-64
2022/01/23 17:20:18;;;;;;;16.77;11.05;;;;;;;;;;5129586;27;20112;-63
2022/01/23 17:22:44;;;;;;;16.15;10.93;;;;;;;;;;5133980;27;20056;-63
2022/01/23 17:25:10;;;;;;;18.98;11.18;;;;;;;;;;5132063;27;20052;-64
2022/01/23 17:27:36;;;;;;;17.35;10.95;;;;;;;;;;5131234;27;20064;-64
2022/01/23 17:30:03;;;;;;;19.67;11.93;;;;;;;;;;5128259;27;20055;-63
2022/01/23 17:32:29;;;;;;;17.42;10.88;;;;;;;;;;5131456;27;20056;-64
2022/01/23 17:35:13;;;;;;;18.80;10.80;;;;;;;;;;5128504;27;20559;-63
2022/01/23 17:37:40;;;;;;;18.45;11.55;;;;;;;;;;5134221;27;20058;-63
2022/01/23 17:40:08;;;;;;;18.45;11.40;;;;;;;;;;5134669;27;20426;-63
2022/01/23 17:42:35;;;;;;;19.80;11.73;;;;;;;;;;5134539;27;20044;-63
2022/01/23 17:45:01;;;;;;;15.93;9.95;;;;;;;;;;5134447;27;20050;-64
2022/01/23 17:50:04;;;;;;;16.83;11.40;;;;;;;;;;5127843;27;20514;-63
2022/01/23 17:52:31;;;;;;;16.90;11.45;;;;;;;;;;5132785;27;20051;-63
2022/01/23 17:54:57;;;;;;;18.88;11.52;;;;;;;;;;5136715;27;20496;-63
2022/01/23 17:57:23;;;;;;;19.33;11.20;;;;;;;;;;5134402;27;20044;-65
2022/01/23 17:59:49;;;;;;;16.58;11.05;;;;;;;;;;5134530;27;20059;-64